createdAt,value
2023-05-07T00:00:00.501Z,0.70
2023-05-07T00:05:03.665Z,0.98
2023-05-07T00:10:07.084Z,0.75
2023-05-07T00:15:09.036Z,1.05
2023-05-07T00:20:11.237Z,0.75
2023-05-07T00:25:12.811Z,1.08
2023-05-07T00:30:14.247Z,0.98
2023-05-07T00:35:15.805Z,0.80
2023-05-07T00:40:17.229Z,0.90
2023-05-07T00:45:18.878Z,0.90
2023-05-07T00:50:21.070Z,0.82
2023-05-07T00:55:23.042Z,0.98
2023-05-07T01:00:25.609Z,0.77
2023-05-07T01:05:27.082Z,0.95
2023-05-07T01:10:31.397Z,0.73
2023-05-07T01:15:32.887Z,0.90
2023-05-07T01:20:34.250Z,0.90
2023-05-07T01:25:35.656Z,1.00
2023-05-07T01:30:37.169Z,1.08
2023-05-07T01:35:41.661Z,1.00
2023-05-07T01:40:43.101Z,0.90
2023-05-07T01:45:45.379Z,1.20
2023-05-07T01:50:46.840Z,0.90
2023-05-07T01:55:48.203Z,1.00
2023-05-07T02:00:49.570Z,0.90
2023-05-07T02:05:51.050Z,0.95
2023-05-07T02:10:52.855Z,1.15
2023-05-07T02:15:54.584Z,0.90
2023-05-07T02:20:56.026Z,1.02
2023-05-07T02:25:57.396Z,1.20
2023-05-07T02:31:02.018Z,0.98
2023-05-07T02:36:07.924Z,1.10
2023-05-07T02:46:10.760Z,0.70
2023-05-07T02:51:12.177Z,0.80
2023-05-07T02:56:13.897Z,1.05
2023-05-07T03:01:15.697Z,1.00
2023-05-07T03:06:17.151Z,0.80
2023-05-07T03:11:18.546Z,0.80
2023-05-07T03:16:20.020Z,0.80
2023-05-07T03:21:21.506Z,0.90
2023-05-07T03:26:23.076Z,0.80
2023-05-07T03:31:24.525Z,0.60
2023-05-07T03:36:27.733Z,0.70
2023-05-07T03:41:30.499Z,0.80
2023-05-07T03:46:33.647Z,0.70
2023-05-07T03:51:36.898Z,0.52
2023-05-07T03:56:38.286Z,0.90
2023-05-07T04:01:39.730Z,0.73
2023-05-07T04:06:41.160Z,0.60
2023-05-07T04:11:42.673Z,0.50
2023-05-07T04:16:44.093Z,0.73
2023-05-07T04:21:45.564Z,0.65
2023-05-07T04:26:46.989Z,0.70
2023-05-07T04:31:48.428Z,0.70
2023-05-07T04:36:49.850Z,0.60
2023-05-07T04:41:51.251Z,0.70
2023-05-07T04:46:52.655Z,0.75
2023-05-07T04:51:54.078Z,0.75
2023-05-07T04:56:55.461Z,0.70
2023-05-07T05:01:57.298Z,0.65
2023-05-07T05:06:59.019Z,0.70
2023-05-07T05:12:00.591Z,0.80
2023-05-07T05:17:02.003Z,0.70
2023-05-07T05:22:04.730Z,0.75
2023-05-07T05:27:06.111Z,0.80
2023-05-07T05:32:07.494Z,0.70
2023-05-07T05:37:08.871Z,0.70
2023-05-07T05:42:10.280Z,0.70
2023-05-07T05:47:11.652Z,0.70
2023-05-07T05:52:13.321Z,0.70
2023-05-07T05:57:14.693Z,0.60
2023-05-07T06:02:16.198Z,0.80
2023-05-07T06:07:17.701Z,0.70
2023-05-07T06:12:19.097Z,0.70
2023-05-07T06:17:21.892Z,0.50
2023-05-07T06:22:23.592Z,0.65
2023-05-07T06:27:25.051Z,0.70
2023-05-07T06:32:26.435Z,0.70
2023-05-07T06:37:27.840Z,0.60
2023-05-07T06:42:29.228Z,0.60
2023-05-07T06:47:30.935Z,0.40
2023-05-07T06:52:32.371Z,0.35
2023-05-07T06:57:33.754Z,0.50
2023-05-07T07:02:35.225Z,0.45
2023-05-07T07:07:36.662Z,0.50
2023-05-07T07:12:38.078Z,0.45
2023-05-07T07:17:39.517Z,0.50
2023-05-07T07:22:41.046Z,0.40
2023-05-07T07:27:42.441Z,0.70
2023-05-07T07:32:43.935Z,0.52
2023-05-07T07:37:45.456Z,0.50
2023-05-07T07:42:46.854Z,0.47
2023-05-07T07:47:48.234Z,0.40
2023-05-07T07:52:49.622Z,0.30
2023-05-07T07:57:51.058Z,0.30
2023-05-07T08:02:52.575Z,0.40
2023-05-07T08:07:54.287Z,0.55
2023-05-07T08:12:55.799Z,0.30
2023-05-07T08:17:58.497Z,0.40
2023-05-07T08:22:59.998Z,0.50
2023-05-07T08:28:01.898Z,0.45
2023-05-07T08:33:03.606Z,0.47
2023-05-07T08:38:05.168Z,0.30
2023-05-07T08:43:06.713Z,0.30
2023-05-07T08:48:16.308Z,0.55
2023-05-07T08:53:17.785Z,0.40
2023-05-07T08:58:19.163Z,0.40
2023-05-07T09:03:20.734Z,0.30
2023-05-07T09:08:27.481Z,0.22
2023-05-07T09:13:29.038Z,0.25
2023-05-07T09:18:30.475Z,0.52
2023-05-07T09:23:31.891Z,0.40
2023-05-07T09:28:34.198Z,0.40
2023-05-07T09:33:36.094Z,0.32
2023-05-07T09:38:37.954Z,0.40
2023-05-07T09:43:39.848Z,0.40
2023-05-07T09:48:42.995Z,0.55
2023-05-07T09:53:44.561Z,0.45
2023-05-07T09:58:46.076Z,0.50
2023-05-07T10:03:47.568Z,0.50
2023-05-07T10:08:49.325Z,0.50
2023-05-07T10:13:50.771Z,0.50
2023-05-07T10:18:52.141Z,0.40
2023-05-07T10:24:01.374Z,0.40
2023-05-07T10:29:08.692Z,0.52
2023-05-07T10:34:14.812Z,0.50
2023-05-07T10:39:16.201Z,0.50
2023-05-07T10:44:30.008Z,0.60
2023-05-07T10:49:31.396Z,0.55
2023-05-07T10:54:37.409Z,0.60
2023-05-07T10:59:42.766Z,0.60
2023-05-07T11:04:44.314Z,0.50
2023-05-07T11:09:52.102Z,0.50
2023-05-07T11:14:54.814Z,0.60
2023-05-07T11:19:56.339Z,0.50
2023-05-07T11:25:00.969Z,0.57
2023-05-07T11:30:02.391Z,0.47
2023-05-07T11:35:03.878Z,0.50
2023-05-07T11:40:09.822Z,0.50
2023-05-07T11:45:11.757Z,0.55
2023-05-07T11:50:13.336Z,0.60
2023-05-07T11:55:14.750Z,0.50
2023-05-07T12:00:16.920Z,0.50
2023-05-07T12:05:18.396Z,0.60
2023-05-07T12:10:20.685Z,0.50
2023-05-07T12:15:23.928Z,0.50
2023-05-07T12:20:25.538Z,0.65
2023-05-07T12:25:27.138Z,0.57
2023-05-07T12:30:28.588Z,0.70
2023-05-07T12:35:30.677Z,0.40
2023-05-07T12:40:42.557Z,0.60
2023-05-07T12:45:44.123Z,0.40
2023-05-07T12:50:45.548Z,0.57
2023-05-07T12:55:51.374Z,0.70
2023-05-07T13:05:58.488Z,0.60
2023-05-07T13:11:04.332Z,0.50
2023-05-07T13:16:06.777Z,0.50
2023-05-07T13:21:08.347Z,0.60
2023-05-07T13:26:22.489Z,0.70
2023-05-07T13:31:27.556Z,0.50
2023-05-07T13:36:29.454Z,0.57
2023-05-07T13:41:30.892Z,0.50
2023-05-07T13:46:32.410Z,0.40
2023-05-07T13:51:33.847Z,0.50
2023-05-07T13:56:35.289Z,0.50
2023-05-07T14:01:36.682Z,0.60
2023-05-07T14:06:38.308Z,0.50
2023-05-07T14:11:40.706Z,0.50
2023-05-07T14:16:42.115Z,0.40
2023-05-07T14:21:43.542Z,0.40
2023-05-07T14:26:46.085Z,0.43
2023-05-07T14:31:47.491Z,0.60
2023-05-07T14:36:48.886Z,0.50
2023-05-07T14:41:50.315Z,0.40
2023-05-07T14:46:51.708Z,0.30
2023-05-07T14:51:53.098Z,0.47
2023-05-07T14:56:54.515Z,0.47
2023-05-07T15:01:55.962Z,0.28
2023-05-07T15:06:57.468Z,0.30
2023-05-07T15:11:59.002Z,0.50
2023-05-07T15:17:00.367Z,0.40
2023-05-07T15:22:03.706Z,0.40
2023-05-07T15:27:05.291Z,0.40
2023-05-07T15:32:06.885Z,0.30
2023-05-07T15:37:08.349Z,0.30
2023-05-07T15:42:09.944Z,0.30
2023-05-07T15:47:11.411Z,0.40
2023-05-07T15:52:14.561Z,0.40
2023-05-07T15:57:16.150Z,0.30
2023-05-07T16:02:17.554Z,0.45
2023-05-07T16:07:19.699Z,0.30
2023-05-07T16:12:22.445Z,0.50
2023-05-07T16:17:23.866Z,0.60
2023-05-07T16:22:25.970Z,0.50
2023-05-07T16:27:27.374Z,0.40
2023-05-07T16:32:29.967Z,0.55
2023-05-07T16:37:33.228Z,0.40
2023-05-07T16:42:35.281Z,0.50
2023-05-07T16:47:36.724Z,0.47
2023-05-07T16:52:38.149Z,0.43
2023-05-07T16:57:39.517Z,0.40
2023-05-07T17:02:40.971Z,0.63
2023-05-07T17:07:42.416Z,0.40
2023-05-07T17:12:44.062Z,0.68
2023-05-07T17:17:45.551Z,0.50
2023-05-07T17:22:47.170Z,0.50
2023-05-07T17:27:48.918Z,0.50
2023-05-07T17:32:50.370Z,0.40
2023-05-07T17:37:52.478Z,0.60
2023-05-07T17:42:54.994Z,0.40
2023-05-07T17:47:57.704Z,0.40
2023-05-07T17:52:59.139Z,0.60
2023-05-07T17:58:00.578Z,0.50
2023-05-07T18:03:02.709Z,0.50
2023-05-07T18:08:04.167Z,0.60
2023-05-07T18:13:05.625Z,0.55
2023-05-07T18:18:07.102Z,0.40
2023-05-07T18:23:08.982Z,0.40
2023-05-07T18:28:10.366Z,0.60
2023-05-07T18:33:13.087Z,0.50
2023-05-07T18:38:14.518Z,0.45
2023-05-07T18:43:16.082Z,0.68
2023-05-07T18:48:17.532Z,0.40
2023-05-07T18:53:18.905Z,0.55
2023-05-07T18:58:20.482Z,0.50
2023-05-07T19:03:21.964Z,0.50
2023-05-07T19:08:23.566Z,0.50
2023-05-07T19:13:27.183Z,0.50
2023-05-07T19:18:29.644Z,0.60
2023-05-07T19:23:32.299Z,0.60
2023-05-07T19:28:34.458Z,0.43
2023-05-07T19:33:36.313Z,0.60
2023-05-07T19:38:37.712Z,0.60
2023-05-07T19:43:39.492Z,0.50
2023-05-07T19:48:40.875Z,0.50
2023-05-07T19:53:42.341Z,0.50
2023-05-07T19:58:43.730Z,0.47
2023-05-07T20:03:45.435Z,0.52
2023-05-07T20:08:46.886Z,0.50
2023-05-07T20:13:48.306Z,0.40
2023-05-07T20:18:49.694Z,0.52
2023-05-07T20:23:51.418Z,0.45
2023-05-07T20:28:52.961Z,0.45
2023-05-07T20:33:54.334Z,0.35
2023-05-07T20:38:56.072Z,0.50
2023-05-07T20:43:57.569Z,0.50
2023-05-07T20:48:58.952Z,0.40
2023-05-07T20:54:00.327Z,0.60
2023-05-07T20:59:04.078Z,0.50
2023-05-07T21:04:05.463Z,0.50
2023-05-07T21:09:07.683Z,0.50
2023-05-07T21:14:09.099Z,0.40
2023-05-07T21:19:10.857Z,0.50
2023-05-07T21:24:12.310Z,0.45
2023-05-07T21:29:13.690Z,0.50
2023-05-07T21:34:15.086Z,0.30
2023-05-07T21:39:16.479Z,0.30
2023-05-07T21:44:17.893Z,0.40
2023-05-07T21:49:19.264Z,0.60
2023-05-07T21:54:20.782Z,0.50
2023-05-07T21:59:22.199Z,0.50
2023-05-07T22:04:23.583Z,0.40
2023-05-07T22:09:24.953Z,0.43
2023-05-07T22:14:26.362Z,0.50
2023-05-07T22:19:27.740Z,0.40
2023-05-07T22:24:29.365Z,0.40
2023-05-07T22:29:30.760Z,0.50
2023-05-07T22:34:32.147Z,0.40
2023-05-07T22:39:34.967Z,0.60
2023-05-07T22:44:36.345Z,0.50
2023-05-07T22:49:37.731Z,0.40
2023-05-07T22:54:39.100Z,0.38
2023-05-07T22:59:40.479Z,0.43
2023-05-07T23:04:41.898Z,0.50
2023-05-07T23:09:43.282Z,0.40
2023-05-07T23:14:44.711Z,0.40
2023-05-07T23:19:46.153Z,0.43
2023-05-07T23:24:47.558Z,0.45
2023-05-07T23:29:48.934Z,0.50
2023-05-07T23:34:51.011Z,0.63
2023-05-07T23:39:55.165Z,0.40
2023-05-07T23:44:57.002Z,0.45
2023-05-07T23:49:58.383Z,0.60
2023-05-07T23:54:59.757Z,0.45
